Unser Platzwetter:
(um das Bild zu aktualisieren oder bei unvollständig geladenem Bild den Reload-Button des Browsers drücken)

 

 
[Quelle: ADDS]
METAR
ETNN 250620Z 26015KT 9999 FEW021 BKN040 08/03 Q1002 BLU =
TAF
SR / SS: 06:26 / 17:06 UTC (Vettweiss-Soller 2020-02-25)
 

Hier gibt es ein Wetterdiagramm der letzten 7 Tage.

Hier geht es zu unserer Webcam.

Satelitenbild:

aktuelles Meteosat-Bild von www.wetterzentrale.de